Torrance, Pennsylvania
Current Conditions -  °F | °C
As of 4:50 PM on Thursday 27 Nov 2014 (Local Time) from KLBE Reporting Station
Light Snow Light Snow  
Wind Chill: 24°   Ceiling: 900
Heat Index: 32°   Visibility: 3mi
Dew Point: 32°   Wind: 9mph
Humidity: 100%   Direction: 270°W
Pressure: 30.12"   Gusts: NA
Location:  40.42°N, 79.22°W
Report Text: KLBE 272150Z 27008KT 3SM -SN SCT002 OVC009 00/00 A3012
Loading
Personal Weather Stations






























Interactive Weather Map New forecast layout! Learn more

10-Day Weather Forecast

Advertisements
Track Severe Weather on mobile